Time;durP1;ratioP1;P1;durP2;ratioP2;P2;SDS_P1;SDS_P2;PMS_P1;PMS_P2;Temp;Humidity;BMP_temperature;BMP_pressure;BME280_temperature;BME280_humidity;BME280_pressure;Samples;Min_cycle;Max_cycle;Signal;HPM_P1;HPM_P2
2023/12/10 00:00:53;;;;;;;6.20;0.93;;;8.30;99.90;;;;;;4979120;28;20086;-80
2023/12/10 00:03:19;;;;;;;5.68;1.00;;;8.30;99.90;;;;;;4982543;28;20447;-80
2023/12/10 00:05:45;;;;;;;7.30;1.30;;;8.20;99.90;;;;;;4983805;28;20033;-81
2023/12/10 00:08:10;;;;;;;6.20;0.70;;;8.30;99.90;;;;;;4988472;28;20062;-81
2023/12/10 00:10:36;;;;;;;2.78;0.88;;;8.30;99.90;;;;;;4985404;28;20023;-81
2023/12/10 00:13:02;;;;;;;6.40;0.80;;;8.30;99.90;;;;;;4980484;28;20045;-80
2023/12/10 00:15:28;;;;;;;3.85;0.85;;;8.30;99.90;;;;;;4987274;28;20031;-80
2023/12/10 00:17:54;;;;;;;9.10;1.02;;;8.30;99.90;;;;;;4983212;28;20030;-80
2023/12/10 00:20:20;;;;;;;4.82;1.10;;;8.30;99.90;;;;;;4994721;28;20420;-80
2023/12/10 00:22:47;;;;;;;6.90;1.73;;;8.30;99.90;;;;;;4977760;28;20538;-80
2023/12/10 00:25:12;;;;;;;6.35;1.23;;;8.30;99.90;;;;;;4991584;28;20081;-81
2023/12/10 00:27:40;;;;;;;6.68;1.30;;;8.30;99.90;;;;;;4995597;28;20031;-81
2023/12/10 00:30:07;;;;;;;6.97;0.90;;;8.30;99.90;;;;;;4989220;28;20066;-81
2023/12/10 00:32:34;;;;;;;7.60;1.50;;;8.20;99.90;;;;;;4992776;28;20026;-80
2023/12/10 00:35:00;;;;;;;5.70;1.63;;;8.20;99.90;;;;;;4991850;28;20034;-81
2023/12/10 00:37:27;;;;;;;11.35;1.67;;;8.20;99.90;;;;;;4985846;28;20033;-81
2023/12/10 00:39:53;;;;;;;11.73;1.50;;;8.20;99.90;;;;;;5008274;28;20057;-82
2023/12/10 00:42:18;;;;;;;5.82;1.75;;;8.20;99.90;;;;;;4988915;28;20035;-79
2023/12/10 00:44:45;;;;;;;7.28;1.23;;;8.20;99.90;;;;;;4989704;28;20087;-81
2023/12/10 00:47:12;;;;;;;8.90;1.83;;;8.20;99.90;;;;;;4997042;28;20010;-80
2023/12/10 00:49:43;;;;;;;13.63;1.95;;;8.20;99.90;;;;;;4984906;28;20043;-81
2023/12/10 00:52:09;;;;;;;11.13;1.92;;;8.20;99.90;;;;;;4990218;28;20035;-81
2023/12/10 00:54:34;;;;;;;17.60;2.42;;;8.20;99.90;;;;;;4985528;28;20049;-81
2023/12/10 00:57:00;;;;;;;7.95;1.52;;;8.20;99.90;;;;;;4982350;28;20039;-82
2023/12/10 00:59:26;;;;;;;12.32;2.22;;;8.10;99.90;;;;;;4973010;28;20019;-80
2023/12/10 01:01:52;;;;;;;10.20;3.35;;;8.10;99.90;;;;;;4977357;28;20058;-81
2023/12/10 01:04:18;;;;;;;14.32;2.88;;;8.10;99.90;;;;;;4971380;28;20383;-81
2023/12/10 01:06:43;;;;;;;12.32;1.90;;;8.10;99.90;;;;;;4979755;28;20055;-81
2023/12/10 01:09:09;;;;;;;10.35;2.13;;;8.10;99.90;;;;;;4977326;28;20062;-81
2023/12/10 01:11:35;;;;;;;16.17;2.15;;;8.10;99.90;;;;;;4994179;28;20041;-81
2023/12/10 01:14:03;;;;;;;11.55;2.70;;;8.10;99.90;;;;;;4976384;28;20155;-81
2023/12/10 01:16:29;;;;;;;14.27;2.38;;;8.10;99.90;;;;;;4975059;28;20045;-81
2023/12/10 01:18:56;;;;;;;17.48;3.58;;;8.10;99.90;;;;;;4976626;28;20025;-80
2023/12/10 01:21:22;;;;;;;12.73;2.42;;;8.10;99.90;;;;;;4970999;28;20027;-80
2023/12/10 01:23:54;;;;;;;13.73;2.78;;;8.20;99.90;;;;;;4975979;28;20414;-82
2023/12/10 01:26:20;;;;;;;12.77;2.55;;;8.20;99.90;;;;;;4977741;28;20400;-80
2023/12/10 01:28:45;;;;;;;16.75;3.70;;;8.20;99.90;;;;;;4975325;28;20035;-81
2023/12/10 01:31:11;;;;;;;17.08;2.85;;;8.20;99.90;;;;;;4976341;28;20484;-81
2023/12/10 01:33:36;;;;;;;13.75;2.55;;;8.10;99.90;;;;;;4968534;28;20542;-81
2023/12/10 01:36:02;;;;;;;16.45;2.80;;;8.10;99.90;;;;;;4967006;28;20031;-81
2023/12/10 01:38:28;;;;;;;10.43;2.08;;;8.10;99.90;;;;;;4989128;28;20129;-81
2023/12/10 01:40:53;;;;;;;14.50;2.63;;;8.10;99.90;;;;;;4973251;28;20023;-80
2023/12/10 01:43:19;;;;;;;17.98;2.38;;;8.10;99.90;;;;;;4976019;28;20062;-81
2023/12/10 01:45:53;;;;;;;17.63;4.38;;;8.10;99.90;;;;;;4972821;28;20061;-82
2023/12/10 01:48:20;;;;;;;15.55;2.72;;;8.10;99.90;;;;;;4972003;28;20022;-82
2023/12/10 01:50:47;;;;;;;16.80;2.38;;;8.10;99.90;;;;;;4973973;28;20035;-80
2023/12/10 01:53:14;;;;;;;16.77;3.17;;;8.10;99.90;;;;;;4971406;28;20708;-81
2023/12/10 01:55:41;;;;;;;12.90;3.47;;;8.00;99.90;;;;;;4971925;28;20038;-81
2023/12/10 01:58:09;;;;;;;11.48;2.95;;;8.00;99.90;;;;;;4976480;28;20109;-81
2023/12/10 02:00:35;;;;;;;17.85;2.80;;;8.00;99.90;;;;;;4984717;28;20546;-81
2023/12/10 02:03:05;;;;;;;19.33;4.25;;;8.00;99.90;;;;;;4968741;28;20033;-81
2023/12/10 02:05:31;;;;;;;15.13;4.03;;;8.00;99.90;;;;;;4972342;28;20074;-80
2023/12/10 02:07:57;;;;;;;15.73;3.03;;;8.00;99.90;;;;;;4971304;28;20031;-80
2023/12/10 02:10:22;;;;;;;20.70;3.58;;;8.00;99.90;;;;;;4972599;28;20027;-80
2023/12/10 02:12:51;;;;;;;17.58;3.88;;;8.00;99.90;;;;;;4971373;28;20037;-83
2023/12/10 02:15:19;;;;;;;15.07;3.13;;;8.00;99.90;;;;;;4973063;28;20579;-80
2023/12/10 02:17:49;;;;;;;20.58;3.03;;;8.00;99.90;;;;;;4968677;28;20042;-80
2023/12/10 02:20:16;;;;;;;20.08;3.63;;;8.00;99.90;;;;;;4976082;28;20027;-80
2023/12/10 02:22:51;;;;;;;19.33;3.70;;;8.00;99.90;;;;;;4979591;28;20027;-81
2023/12/10 02:25:22;;;;;;;24.83;3.28;;;8.00;99.90;;;;;;4971550;28;20022;-82
2023/12/10 02:27:48;;;;;;;18.52;3.20;;;7.90;99.90;;;;;;4983358;28;20050;-81
2023/12/10 02:30:14;;;;;;;13.65;2.60;;;8.00;99.90;;;;;;4971716;28;20098;-80
2023/12/10 02:32:39;;;;;;;22.35;4.25;;;8.00;99.90;;;;;;4967234;28;20127;-80
2023/12/10 02:35:06;;;;;;;13.20;3.20;;;7.90;99.90;;;;;;4969815;28;20054;-81
2023/12/10 02:37:31;;;;;;;19.52;3.20;;;8.00;99.90;;;;;;4971866;28;20054;-80
2023/12/10 02:39:58;;;;;;;23.90;3.90;;;8.00;99.90;;;;;;4972220;28;20399;-81
2023/12/10 02:42:23;;;;;;;20.00;3.25;;;8.00;99.90;;;;;;4972203;28;20043;-80
2023/12/10 02:44:49;;;;;;;16.20;4.07;;;8.00;99.90;;;;;;4973877;28;20027;-80
2023/12/10 02:47:15;;;;;;;12.98;2.60;;;7.90;99.90;;;;;;4969823;28;20160;-81
2023/12/10 02:49:40;;;;;;;19.50;3.20;;;7.90;99.90;;;;;;4968954;28;20102;-80
2023/12/10 02:52:06;;;;;;;15.73;2.42;;;7.90;99.90;;;;;;4966748;28;20578;-80
2023/12/10 02:54:31;;;;;;;18.52;2.75;;;7.90;99.90;;;;;;4976794;28;20106;-81
2023/12/10 02:56:57;;;;;;;14.45;3.40;;;7.90;99.90;;;;;;4972009;28;20053;-81
2023/12/10 02:59:23;;;;;;;12.18;2.47;;;7.90;99.90;;;;;;4969170;28;20023;-81
2023/12/10 03:01:49;;;;;;;11.27;1.67;;;7.90;99.90;;;;;;4973032;28;20102;-81
2023/12/10 03:04:14;;;;;;;17.42;2.50;;;7.90;99.90;;;;;;4974852;28;20026;-80
2023/12/10 03:06:40;;;;;;;10.32;2.08;;;7.90;99.90;;;;;;4972525;28;20484;-80
2023/12/10 03:09:05;;;;;;;9.77;1.40;;;7.80;99.90;;;;;;4972034;28;20042;-81
2023/12/10 03:11:31;;;;;;;9.80;2.42;;;7.80;99.90;;;;;;4971471;28;20057;-81
2023/12/10 03:13:57;;;;;;;6.03;1.58;;;7.80;99.90;;;;;;4970781;28;20435;-81
2023/12/10 03:16:22;;;;;;;12.65;1.88;;;7.80;99.90;;;;;;4967500;28;20491;-80
2023/12/10 03:18:48;;;;;;;7.72;2.20;;;7.80;99.90;;;;;;4970413;28;20069;-80
2023/12/10 03:21:13;;;;;;;15.20;2.28;;;7.80;99.90;;;;;;4966762;28;20034;-81
2023/12/10 03:23:39;;;;;;;11.00;1.88;;;7.70;99.90;;;;;;4973890;28;20181;-81
2023/12/10 03:26:04;;;;;;;9.93;2.35;;;7.70;99.90;;;;;;4974643;28;20471;-80
2023/12/10 03:28:30;;;;;;;11.05;2.58;;;7.70;99.90;;;;;;4971807;28;20032;-80
2023/12/10 03:30:56;;;;;;;16.75;2.72;;;7.70;99.90;;;;;;4968827;28;20110;-83
2023/12/10 03:33:21;;;;;;;10.63;2.97;;;7.70;99.90;;;;;;4971103;28;20473;-80
2023/12/10 03:35:47;;;;;;;14.23;2.60;;;7.70;99.90;;;;;;4973586;28;20027;-80
2023/12/10 03:38:12;;;;;;;10.75;2.38;;;7.70;99.90;;;;;;4966731;28;20038;-80
2023/12/10 03:40:38;;;;;;;14.20;2.63;;;7.60;99.90;;;;;;4970220;28;20035;-81
2023/12/10 03:43:04;;;;;;;13.70;2.88;;;7.60;99.90;;;;;;4975453;28;20031;-81
2023/12/10 03:45:29;;;;;;;8.60;1.80;;;7.60;99.90;;;;;;4978076;28;20062;-81
2023/12/10 03:47:55;;;;;;;13.52;2.05;;;7.50;99.90;;;;;;4975657;28;20031;-82
2023/12/10 03:50:20;;;;;;;7.57;2.03;;;7.50;99.90;;;;;;4975098;28;20027;-81
2023/12/10 03:52:46;;;;;;;15.95;2.38;;;7.50;99.90;;;;;;4974904;28;20088;-81
2023/12/10 03:55:12;;;;;;;12.73;2.63;;;7.50;99.90;;;;;;4968711;28;20050;-81
2023/12/10 03:57:37;;;;;;;9.63;1.98;;;7.40;99.90;;;;;;4976080;28;20081;-81
2023/12/10 04:00:04;;;;;;;11.43;2.65;;;7.40;99.90;;;;;;4974677;28;20102;-81
2023/12/10 04:02:30;;;;;;;14.48;2.13;;;7.30;99.90;;;;;;4976172;28;20053;-81
2023/12/10 04:04:56;;;;;;;10.95;2.88;;;7.30;99.90;;;;;;4974465;28;20109;-81
2023/12/10 04:07:21;;;;;;;21.38;3.80;;;7.30;99.90;;;;;;4977319;28;20671;-81
2023/12/10 04:09:47;;;;;;;10.85;2.17;;;7.30;99.90;;;;;;4975205;28;20034;-81
2023/12/10 04:12:12;;;;;;;14.13;3.00;;;7.30;99.90;;;;;;4976999;28;20081;-80
2023/12/10 04:14:38;;;;;;;10.43;2.45;;;7.30;99.90;;;;;;4972382;28;20033;-81
2023/12/10 04:17:04;;;;;;;8.82;2.00;;;7.40;99.90;;;;;;4974433;28;20154;-81
2023/12/10 04:19:30;;;;;;;15.27;2.58;;;7.40;99.90;;;;;;4976482;28;20025;-81
2023/12/10 04:21:56;;;;;;;12.48;2.45;;;7.40;99.90;;;;;;4980731;28;20058;-81
2023/12/10 04:24:21;;;;;;;15.13;3.30;;;7.40;99.90;;;;;;4974250;28;20022;-81
2023/12/10 04:26:47;;;;;;;16.35;2.60;;;7.40;99.90;;;;;;4974028;28;20028;-81
2023/12/10 04:29:12;;;;;;;14.77;2.85;;;7.40;99.90;;;;;;4978632;28;20119;-80
2023/12/10 04:31:38;;;;;;;11.13;2.38;;;7.40;99.90;;;;;;4976061;28;20035;-81
2023/12/10 04:34:04;;;;;;;12.15;2.20;;;7.50;99.90;;;;;;4972713;28;20034;-80
2023/12/10 04:36:30;;;;;;;7.55;2.35;;;7.50;99.90;;;;;;4972419;28;20114;-81
2023/12/10 04:38:55;;;;;;;17.73;2.30;;;7.50;99.90;;;;;;4973868;28;20023;-80
2023/12/10 04:41:21;;;;;;;21.17;2.58;;;7.50;99.90;;;;;;4985498;28;20081;-81
2023/12/10 04:43:48;;;;;;;12.65;3.33;;;7.50;99.90;;;;;;4975132;28;20034;-80
2023/12/10 04:46:15;;;;;;;11.00;1.90;;;7.50;99.90;;;;;;4971906;28;20042;-80
2023/12/10 04:48:40;;;;;;;10.27;2.13;;;7.50;99.90;;;;;;4973099;28;20453;-81
2023/12/10 04:51:06;;;;;;;14.02;2.65;;;7.40;99.90;;;;;;4971644;28;20106;-81
2023/12/10 04:53:32;;;;;;;12.13;2.30;;;7.50;99.90;;;;;;4975312;28;20046;-81
2023/12/10 04:55:59;;;;;;;12.63;2.30;;;7.50;99.90;;;;;;4970193;28;20035;-81
2023/12/10 04:58:24;;;;;;;11.70;2.47;;;7.40;99.90;;;;;;4989913;28;20056;-81
2023/12/10 05:00:50;;;;;;;11.85;2.92;;;7.50;99.90;;;;;;4971758;28;20019;-81
2023/12/10 05:03:15;;;;;;;25.70;3.28;;;7.50;99.90;;;;;;4969859;28;20046;-81
2023/12/10 05:05:41;;;;;;;15.07;2.50;;;7.40;99.90;;;;;;4971155;28;20436;-81
2023/12/10 05:08:07;;;;;;;16.95;2.53;;;7.40;99.90;;;;;;4971935;28;20065;-81
2023/12/10 05:10:32;;;;;;;17.95;4.30;;;7.40;99.90;;;;;;4969547;28;20078;-82
2023/12/10 05:12:58;;;;;;;11.73;3.05;;;7.40;99.90;;;;;;4969064;28;20085;-81
2023/12/10 05:15:23;;;;;;;14.63;3.25;;;7.40;99.90;;;;;;4975065;28;20022;-81
2023/12/10 05:17:49;;;;;;;17.85;2.78;;;7.40;99.90;;;;;;4970872;28;20487;-81
2023/12/10 05:20:15;;;;;;;18.33;3.03;;;7.40;99.90;;;;;;4968162;28;20088;-81
2023/12/10 05:22:40;;;;;;;14.68;2.70;;;7.50;99.90;;;;;;4971560;28;20533;-81
2023/12/10 05:25:07;;;;;;;17.60;3.10;;;7.40;99.90;;;;;;4966019;28;20038;-81
2023/12/10 05:27:32;;;;;;;14.02;2.72;;;7.50;99.90;;;;;;4973211;28;20022;-82
2023/12/10 05:29:59;;;;;;;13.68;2.42;;;7.40;99.90;;;;;;4970087;28;20082;-81
2023/12/10 05:32:27;;;;;;;11.45;2.30;;;7.50;99.90;;;;;;4970553;28;20026;-81
2023/12/10 05:34:53;;;;;;;15.57;2.63;;;7.50;99.90;;;;;;4979093;28;20035;-82
2023/12/10 05:37:19;;;;;;;10.50;2.63;;;7.40;99.90;;;;;;4975293;28;20086;-81
2023/12/10 05:39:45;;;;;;;16.60;2.92;;;7.40;99.90;;;;;;4973223;28;20022;-81
2023/12/10 05:42:10;;;;;;;15.27;2.75;;;7.40;99.90;;;;;;4971899;28;20033;-81
2023/12/10 05:44:36;;;;;;;17.08;3.10;;;7.40;99.90;;;;;;4970835;28;20081;-81
2023/12/10 05:47:02;;;;;;;12.95;2.45;;;7.40;99.90;;;;;;4968013;28;20452;-81
2023/12/10 05:49:28;;;;;;;14.15;3.10;;;7.40;99.90;;;;;;4968541;28;20034;-82
2023/12/10 05:51:54;;;;;;;9.95;1.77;;;7.40;99.90;;;;;;4984953;28;20126;-81
2023/12/10 05:54:19;;;;;;;15.95;2.75;;;7.40;99.90;;;;;;4972094;28;20114;-81
2023/12/10 05:56:45;;;;;;;14.13;2.35;;;7.40;99.90;;;;;;4968579;28;20035;-81
2023/12/10 05:59:11;;;;;;;13.60;2.92;;;7.50;99.90;;;;;;4974046;28;20482;-81
2023/12/10 06:01:36;;;;;;;20.15;2.90;;;7.40;99.90;;;;;;4970455;28;20547;-81
2023/12/10 06:04:02;;;;;;;13.45;2.53;;;7.50;99.90;;;;;;4970069;28;20037;-81
2023/12/10 06:06:27;;;;;;;12.23;2.50;;;7.40;99.90;;;;;;4966422;28;20042;-81
2023/12/10 06:08:53;;;;;;;15.15;2.22;;;7.50;99.90;;;;;;4969838;28;20124;-81
2023/12/10 06:11:19;;;;;;;13.82;2.75;;;7.50;99.90;;;;;;4967277;28;20042;-81
2023/12/10 06:13:44;;;;;;;9.95;2.17;;;7.50;99.90;;;;;;4970948;28;20034;-82
2023/12/10 06:16:10;;;;;;;13.52;2.03;;;7.50;99.90;;;;;;4970748;28;20030;-81
2023/12/10 06:18:35;;;;;;;13.88;2.80;;;7.50;99.90;;;;;;4970155;28;20031;-82
2023/12/10 06:21:01;;;;;;;18.52;2.28;;;7.50;99.90;;;;;;4969094;28;20030;-81
2023/12/10 06:23:27;;;;;;;13.40;2.17;;;7.50;99.90;;;;;;4966385;28;20400;-81
2023/12/10 06:25:53;;;;;;;17.60;2.25;;;7.50;99.90;;;;;;4970563;28;20026;-81
2023/12/10 06:28:18;;;;;;;14.40;2.60;;;7.50;99.90;;;;;;4969970;28;20027;-81
2023/12/10 06:30:44;;;;;;;18.50;4.20;;;7.50;99.90;;;;;;4968514;28;20538;-81
2023/12/10 06:33:10;;;;;;;11.90;2.05;;;7.50;99.90;;;;;;4966578;28;20046;-81
2023/12/10 06:35:35;;;;;;;11.00;2.08;;;7.50;99.90;;;;;;4971557;28;20030;-81
2023/12/10 06:38:01;;;;;;;13.15;2.47;;;7.50;99.90;;;;;;4973499;28;20035;-81
2023/12/10 06:40:26;;;;;;;12.75;2.63;;;7.50;99.90;;;;;;4971542;28;20052;-81
2023/12/10 06:42:52;;;;;;;13.25;2.70;;;7.50;99.90;;;;;;4967742;28;20057;-80
2023/12/10 06:45:19;;;;;;;9.00;1.88;;;7.80;99.90;;;;;;4968523;28;20110;-79
2023/12/10 06:47:45;;;;;;;13.43;3.90;;;8.10;99.90;;;;;;4971757;28;20022;-80
2023/12/10 06:50:10;;;;;;;10.13;1.70;;;8.40;99.90;;;;;;4968531;28;20066;-81
2023/12/10 06:52:36;;;;;;;13.60;2.35;;;8.50;99.90;;;;;;4964759;28;20443;-81
2023/12/10 06:55:02;;;;;;;12.20;2.53;;;8.70;99.90;;;;;;4966092;28;20037;-80
2023/12/10 06:57:27;;;;;;;11.98;2.30;;;8.70;99.90;;;;;;4964485;28;20085;-80
2023/12/10 06:59:53;;;;;;;16.55;2.38;;;8.90;99.90;;;;;;4968832;28;20110;-82
2023/12/10 07:02:19;;;;;;;13.18;1.88;;;8.90;99.90;;;;;;4970918;28;20546;-81
2023/12/10 07:04:44;;;;;;;12.32;1.90;;;8.80;99.90;;;;;;4963268;28;20791;-81
2023/12/10 07:07:10;;;;;;;12.38;2.15;;;8.70;99.90;;;;;;4968874;28;20069;-80
2023/12/10 07:09:36;;;;;;;14.73;2.25;;;8.50;99.90;;;;;;4968167;28;20038;-81
2023/12/10 07:12:02;;;;;;;12.32;2.97;;;8.40;99.90;;;;;;4971634;28;20400;-81
2023/12/10 07:14:28;;;;;;;11.65;2.30;;;8.20;99.90;;;;;;4985040;28;20031;-81
2023/12/10 07:16:53;;;;;;;11.07;2.28;;;8.10;99.90;;;;;;4996309;28;20054;-79
2023/12/10 07:19:19;;;;;;;12.45;2.30;;;8.10;99.90;;;;;;4996167;28;20788;-79
2023/12/10 07:21:44;;;;;;;11.15;2.13;;;8.00;99.90;;;;;;5005635;28;20018;-78
2023/12/10 07:24:10;;;;;;;9.27;1.83;;;7.90;99.90;;;;;;5001174;28;20058;-79
2023/12/10 07:26:36;;;;;;;13.13;2.88;;;7.90;99.90;;;;;;5002866;28;20077;-79
2023/12/10 07:29:01;;;;;;;16.25;2.70;;;7.80;99.90;;;;;;4998247;28;20031;-79
2023/12/10 07:31:27;;;;;;;14.30;2.63;;;7.80;99.90;;;;;;4987547;28;20049;-79
2023/12/10 07:33:52;;;;;;;10.02;1.77;;;7.80;99.90;;;;;;4978350;28;20091;-79
2023/12/10 07:36:18;;;;;;;14.75;2.13;;;7.80;99.90;;;;;;4980370;28;20101;-79
2023/12/10 07:38:44;;;;;;;14.50;2.38;;;7.80;99.90;;;;;;4979187;28;20522;-80
2023/12/10 07:41:10;;;;;;;9.63;1.88;;;7.80;99.90;;;;;;4976529;28;20391;-80
2023/12/10 07:43:35;;;;;;;14.65;2.53;;;7.70;99.90;;;;;;4974295;28;20030;-81
2023/12/10 07:46:01;;;;;;;7.88;1.75;;;7.70;99.90;;;;;;4980089;28;20034;-79
2023/12/10 07:48:27;;;;;;;10.27;2.17;;;7.70;99.90;;;;;;4985650;28;20058;-79
2023/12/10 07:50:53;;;;;;;9.88;2.03;;;7.80;99.90;;;;;;4972045;28;20428;-80
2023/12/10 07:53:19;;;;;;;11.43;2.47;;;7.70;99.90;;;;;;4972958;28;20073;-79
2023/12/10 07:55:45;;;;;;;14.30;2.40;;;7.80;99.90;;;;;;4976034;28;20078;-79
2023/12/10 07:58:10;;;;;;;13.90;2.10;;;7.80;99.90;;;;;;4977684;28;20118;-82
2023/12/10 08:00:36;;;;;;;15.35;2.13;;;7.80;99.90;;;;;;4968794;28;20583;-79
2023/12/10 08:03:03;;;;;;;14.43;2.75;;;7.80;99.90;;;;;;4973372;28;20082;-79
2023/12/10 08:05:29;;;;;;;11.48;2.45;;;7.80;99.90;;;;;;4973820;28;20015;-80
2023/12/10 08:07:56;;;;;;;13.77;2.10;;;7.80;99.90;;;;;;4978966;28;20114;-78
2023/12/10 08:10:22;;;;;;;8.30;2.20;;;7.90;99.90;;;;;;4978649;28;20023;-79
2023/12/10 08:12:48;;;;;;;10.65;2.45;;;7.90;99.90;;;;;;4974601;28;20038;-78
2023/12/10 08:15:13;;;;;;;12.10;2.53;;;7.90;99.90;;;;;;4977907;28;20046;-80
2023/12/10 08:17:39;;;;;;;12.95;1.92;;;8.00;99.90;;;;;;4976473;28;20019;-79
2023/12/10 08:20:06;;;;;;;7.20;1.95;;;8.00;99.90;;;;;;4989209;28;20037;-80
2023/12/10 08:22:31;;;;;;;12.00;2.10;;;8.00;99.90;;;;;;4976745;28;20019;-79
2023/12/10 08:24:57;;;;;;;10.15;1.80;;;8.00;99.90;;;;;;4975897;28;20033;-79
2023/12/10 08:27:22;;;;;;;15.93;2.92;;;8.00;99.90;;;;;;4971720;28;20031;-80
2023/12/10 08:29:48;;;;;;;15.85;2.30;;;8.00;99.90;;;;;;4982851;28;20023;-80
2023/12/10 08:32:14;;;;;;;14.38;2.72;;;8.00;99.90;;;;;;4977936;28;20027;-79
2023/12/10 08:34:40;;;;;;;7.47;2.10;;;8.00;99.90;;;;;;4975850;28;20046;-80
2023/12/10 08:37:06;;;;;;;11.80;1.85;;;8.00;99.90;;;;;;4975143;28;20023;-79
2023/12/10 08:39:32;;;;;;;12.93;2.20;;;8.00;99.90;;;;;;4977327;28;20057;-80
2023/12/10 08:41:58;;;;;;;10.38;2.53;;;8.00;99.90;;;;;;4979316;28;20694;-79
2023/12/10 08:44:25;;;;;;;13.15;2.15;;;8.10;99.90;;;;;;4978571;28;20026;-79
2023/12/10 08:46:51;;;;;;;13.52;1.90;;;8.10;99.90;;;;;;4974210;28;20480;-79
2023/12/10 08:49:17;;;;;;;10.95;2.15;;;8.10;99.90;;;;;;4978659;28;20043;-80
2023/12/10 08:51:43;;;;;;;11.40;2.00;;;8.10;99.90;;;;;;4973113;28;20982;-79
2023/12/10 08:54:09;;;;;;;12.90;2.78;;;8.20;99.90;;;;;;4976078;28;20041;-79
2023/12/10 08:56:34;;;;;;;9.07;1.98;;;8.20;99.90;;;;;;4976345;28;20034;-79
2023/12/10 08:59:00;;;;;;;17.08;2.92;;;8.20;99.90;;;;;;4978227;28;20443;-79
2023/12/10 09:01:25;;;;;;;8.18;2.25;;;8.10;99.90;;;;;;4975655;28;20031;-79
2023/12/10 09:03:51;;;;;;;16.25;2.05;;;8.10;99.90;;;;;;4975910;28;20480;-79
2023/12/10 09:06:17;;;;;;;8.90;1.75;;;8.10;99.90;;;;;;4973934;28;20117;-79
2023/12/10 09:08:42;;;;;;;8.35;2.25;;;8.10;99.90;;;;;;4976607;28;20038;-79
2023/12/10 09:11:08;;;;;;;11.50;1.70;;;8.10;99.90;;;;;;4978668;28;20035;-79
2023/12/10 09:13:35;;;;;;;10.30;2.08;;;8.10;99.90;;;;;;4976747;28;20076;-79
2023/12/10 09:16:00;;;;;;;7.20;1.30;;;8.10;99.90;;;;;;4973540;28;20027;-80
2023/12/10 09:18:26;;;;;;;9.90;1.67;;;8.20;99.90;;;;;;4976089;28;20023;-80
2023/12/10 09:20:53;;;;;;;7.68;1.60;;;8.20;99.90;;;;;;4974769;28;20039;-80
2023/12/10 09:23:18;;;;;;;12.48;1.70;;;8.20;99.90;;;;;;4976547;28;20035;-80
2023/12/10 09:25:44;;;;;;;8.32;2.20;;;8.30;99.90;;;;;;4974320;28;20070;-79
2023/12/10 09:28:12;;;;;;;7.85;1.70;;;8.30;99.90;;;;;;4976982;28;20117;-80
2023/12/10 09:30:38;;;;;;;10.77;2.05;;;8.40;99.90;;;;;;4976657;28;20666;-79
2023/12/10 09:33:05;;;;;;;13.93;1.60;;;8.40;99.90;;;;;;4971931;28;20118;-80
2023/12/10 09:35:30;;;;;;;9.77;1.60;;;8.50;99.90;;;;;;4976310;28;20050;-81
2023/12/10 09:37:56;;;;;;;10.13;1.88;;;8.40;99.90;;;;;;4971832;28;20038;-81
2023/12/10 09:40:22;;;;;;;9.57;2.17;;;8.50;99.90;;;;;;4971166;28;20030;-80
2023/12/10 09:42:47;;;;;;;8.30;1.88;;;8.50;99.90;;;;;;4975927;28;20083;-80
2023/12/10 09:45:13;;;;;;;9.30;1.73;;;8.50;99.90;;;;;;4976377;28;20054;-80
2023/12/10 09:47:40;;;;;;;8.32;1.70;;;8.60;99.90;;;;;;4978099;28;20095;-80
2023/12/10 09:50:06;;;;;;;7.13;1.85;;;8.60;99.90;;;;;;4975508;28;20034;-80
2023/12/10 09:52:32;;;;;;;13.02;2.30;;;8.70;99.90;;;;;;4974417;28;20081;-80
2023/12/10 09:54:58;;;;;;;10.45;2.10;;;8.80;99.90;;;;;;4973283;28;20030;-80
2023/12/10 09:57:26;;;;;;;10.63;2.50;;;8.90;99.90;;;;;;4973571;28;20042;-80
2023/12/10 09:59:52;;;;;;;10.70;2.03;;;9.00;99.90;;;;;;4972594;28;20109;-80
2023/12/10 10:02:18;;;;;;;8.32;1.77;;;9.00;99.90;;;;;;4974070;28;20105;-80
2023/12/10 10:04:43;;;;;;;8.02;2.10;;;9.10;99.90;;;;;;4972094;28;20322;-80
2023/12/10 10:07:09;;;;;;;12.93;1.63;;;9.10;99.90;;;;;;4971810;28;20038;-80
2023/12/10 10:09:38;;;;;;;11.73;1.67;;;9.10;99.90;;;;;;4974151;28;20041;-80
2023/12/10 10:12:05;;;;;;;8.15;1.35;;;9.20;99.90;;;;;;4972937;28;20027;-81
2023/12/10 10:14:31;;;;;;;4.43;1.25;;;9.30;99.90;;;;;;4967422;28;20035;-80
2023/12/10 10:16:57;;;;;;;7.45;2.08;;;9.30;99.90;;;;;;4971320;28;20054;-80
2023/12/10 10:19:23;;;;;;;10.13;1.42;;;9.40;99.90;;;;;;4973198;28;20052;-80
2023/12/10 10:21:50;;;;;;;8.98;1.50;;;9.50;99.90;;;;;;4973269;28;20030;-80
2023/12/10 10:24:15;;;;;;;10.10;1.75;;;9.50;99.90;;;;;;4977077;28;20070;-80
2023/12/10 10:26:41;;;;;;;9.27;1.30;;;9.60;99.90;;;;;;4976155;28;20365;-80
2023/12/10 10:29:08;;;;;;;13.15;2.28;;;9.60;99.90;;;;;;4966008;28;20026;-80
2023/12/10 10:31:34;;;;;;;7.20;1.60;;;9.60;99.90;;;;;;4974871;28;20026;-81
2023/12/10 10:34:05;;;;;;;9.35;1.40;;;9.60;99.90;;;;;;4974803;28;20027;-80
2023/12/10 10:36:31;;;;;;;10.80;1.67;;;9.60;99.90;;;;;;4974102;28;20050;-80
2023/12/10 10:38:57;;;;;;;7.80;1.58;;;9.60;99.90;;;;;;4971971;28;20041;-80
2023/12/10 10:41:24;;;;;;;13.35;1.83;;;9.60;99.90;;;;;;4972564;28;20023;-80
2023/12/10 10:43:50;;;;;;;8.32;1.40;;;9.60;99.90;;;;;;4973527;28;20039;-81
2023/12/10 10:46:21;;;;;;;13.43;2.17;;;9.60;99.90;;;;;;4972814;28;20054;-80
2023/12/10 10:48:51;;;;;;;9.35;1.48;;;9.60;99.90;;;;;;4971692;28;20399;-80
2023/12/10 10:51:22;;;;;;;9.77;2.38;;;9.60;99.90;;;;;;4973308;28;20174;-80
2023/12/10 10:53:48;;;;;;;9.02;2.42;;;9.70;99.90;;;;;;4974491;28;20031;-80
2023/12/10 10:56:15;;;;;;;8.35;1.60;;;9.60;99.90;;;;;;4974911;28;20031;-80
2023/12/10 10:58:41;;;;;;;6.35;1.65;;;9.60;99.90;;;;;;4971455;28;20038;-80
2023/12/10 11:01:36;;;;;;;12.77;2.38;;;9.60;99.90;;;;;;4973503;28;20027;-80
2023/12/10 11:04:02;;;;;;;8.35;2.20;;;9.60;99.90;;;;;;4973461;28;21594;-81
2023/12/10 11:06:28;;;;;;;8.48;1.95;;;9.60;99.90;;;;;;4973799;28;20037;-81
2023/12/10 11:09:00;;;;;;;9.25;1.92;;;9.60;99.90;;;;;;4973323;28;20484;-80
2023/12/10 11:11:26;;;;;;;11.05;2.20;;;9.60;99.90;;;;;;4976568;28;20038;-80
2023/12/10 11:13:53;;;;;;;10.80;2.45;;;9.60;99.90;;;;;;4975034;28;20093;-80
2023/12/10 11:16:21;;;;;;;13.32;2.20;;;9.60;99.90;;;;;;4970679;28;20039;-80
2023/12/10 11:18:55;;;;;;;8.25;2.15;;;9.70;99.90;;;;;;4975898;28;20043;-81
2023/12/10 11:21:21;;;;;;;8.73;1.52;;;9.70;99.90;;;;;;4975438;28;20033;-80
2023/12/10 11:23:47;;;;;;;11.77;2.90;;;9.70;99.90;;;;;;4973185;28;20113;-81
2023/12/10 11:26:13;;;;;;;14.13;2.33;;;9.70;99.90;;;;;;4972588;28;20031;-80
2023/12/10 11:28:39;;;;;;;9.48;2.00;;;9.70;99.90;;;;;;4973704;28;20030;-80
2023/12/10 11:31:05;;;;;;;10.10;2.40;;;9.60;99.90;;;;;;4973769;28;20105;-80
2023/12/10 11:33:30;;;;;;;8.73;1.75;;;9.60;99.90;;;;;;4974025;28;20046;-80
2023/12/10 11:35:57;;;;;;;10.38;1.98;;;9.60;99.90;;;;;;4972499;28;20195;-80
2023/12/10 11:38:23;;;;;;;7.28;1.75;;;9.60;99.90;;;;;;4976697;28;20023;-81
2023/12/10 11:40:49;;;;;;;7.25;2.08;;;9.50;99.90;;;;;;4971781;28;20121;-80
2023/12/10 11:43:15;;;;;;;11.82;2.00;;;9.50;99.90;;;;;;4973048;28;20050;-80
2023/12/10 11:45:41;;;;;;;8.13;1.80;;;9.50;99.90;;;;;;4969290;28;20633;-84
2023/12/10 11:48:07;;;;;;;8.77;1.73;;;9.50;99.90;;;;;;4972528;28;20157;-80
2023/12/10 11:50:34;;;;;;;12.48;2.28;;;9.40;99.90;;;;;;4972261;28;20050;-80
2023/12/10 11:53:00;;;;;;;11.50;1.75;;;9.50;99.90;;;;;;4973854;28;20022;-80
2023/12/10 11:55:27;;;;;;;9.45;2.10;;;9.40;99.90;;;;;;4968909;28;20026;-80
2023/12/10 11:57:56;;;;;;;17.63;2.45;;;9.50;99.90;;;;;;4971131;28;20106;-80
2023/12/10 12:00:22;;;;;;;10.80;2.13;;;9.50;99.90;;;;;;4972820;28;20077;-80
2023/12/10 12:02:47;;;;;;;4.18;1.23;;;9.50;99.90;;;;;;4972707;28;20023;-79
2023/12/10 12:05:16;;;;;;;7.38;1.70;;;9.50;99.90;;;;;;4971920;28;20037;-80
2023/12/10 12:07:43;;;;;;;9.65;1.85;;;9.50;99.90;;;;;;4978225;28;20164;-80
2023/12/10 12:10:11;;;;;;;11.93;2.00;;;9.50;99.90;;;;;;4977264;28;20086;-80
2023/12/10 12:12:43;;;;;;;4.35;1.08;;;9.60;99.90;;;;;;4974398;28;20387;-80
2023/12/10 12:15:14;;;;;;;7.65;1.67;;;9.60;99.90;;;;;;4967020;28;20023;-80
2023/12/10 12:17:41;;;;;;;8.85;1.65;;;9.70;99.90;;;;;;4977516;28;20034;-80
2023/12/10 12:20:13;;;;;;;11.35;1.67;;;9.70;99.90;;;;;;4974500;28;20026;-81
2023/12/10 12:22:39;;;;;;;7.03;1.35;;;9.70;99.90;;;;;;4974776;28;20399;-80
2023/12/10 12:25:05;;;;;;;12.70;2.22;;;9.70;99.90;;;;;;4969269;28;20099;-80
2023/12/10 12:27:31;;;;;;;14.57;1.95;;;9.70;99.90;;;;;;4973883;28;20023;-81
2023/12/10 12:29:56;;;;;;;7.55;2.53;;;9.70;99.90;;;;;;4967397;28;20027;-80
2023/12/10 12:32:22;;;;;;;10.48;2.63;;;9.70;99.90;;;;;;4970322;28;20033;-80
2023/12/10 12:34:48;;;;;;;9.20;1.92;;;9.70;99.90;;;;;;4971770;28;20033;-80
2023/12/10 12:37:13;;;;;;;10.07;1.75;;;9.70;99.90;;;;;;4963126;28;20044;-80
2023/12/10 12:39:39;;;;;;;5.53;1.27;;;9.70;99.90;;;;;;4970676;28;20104;-81
2023/12/10 12:42:05;;;;;;;9.75;1.83;;;9.70;99.90;;;;;;4973012;28;20110;-80
2023/12/10 12:44:30;;;;;;;7.93;1.30;;;9.70;99.90;;;;;;4973211;28;20051;-80